Hanley Falls, Minnesota
Current Conditions -  °F | °C
As of 10:32 AM on Thursday 18 Dec 2014 (Local Time) from KGDB Reporting Station
Overcast Overcast  
Wind Chill: 14°   Ceiling: 7000
Heat Index: 14°   Visibility: 7mi
Dew Point: 12°   Wind: 3mph
Humidity: 93%   Direction: 120°ESE
Pressure: 30.29"   Gusts: NA
Location:  44.69°N, 95.62°W
Report Text: KGDB 181632Z AUTO 12003KT 7SM OVC070 M10/M11 A3029 RMK AO2 T11001110
Loading
Personal Weather Stations






























Interactive Weather Map New forecast layout! Learn more

10-Day Weather Forecast

Advertisements
Track Severe Weather on mobile